TAF Text Data
IDs:
Format:
Raw Decoded Include METAR

Data at: 0736 UTC 01 Aug 2021

KBNA 010523Z 0106/0206 31007KT 5SM -SHRA OVC025
  TEMPO 0106/0108 3SM TSRA OVC015CB
  FM010800 32006KT 5SM BR VCSH OVC015
  FM011200 35007KT 5SM BR OVC025
  FM011600 36008KT P6SM SCT040 BKN250